Accueil
METAR-TAF:

METAR-TAF

Aéroports :

Gilze-Rijen, Pays-Bas

latitude: 51-34N, longitude: 004-56E, altitude: 15 m

Observation

Le bulletin a été fait il y a 5 minutes, à 03:55 UTC
Vent 5 kt de ouest, variant entre ouest/sud-ouest et nord-ouest
Température 9°C
Humidité 93%
Pression 1028 hPa
Visibilité 10 km ou plus
Ciel couvert à une hauteur de 2300 ft

METAR: EHGR 230355Z AUTO 26005KT 250V310 9999 OVC023 09/08 Q1028 WHT

Heure: 06:00 (04:00 UTC)

Prévision

Le bulletin a été fait il y a 19 heures et 53 minutes, à 08:07 UTC
Prévision valable du 22 à 09 UTC au 22 à 21 UTC
Vent 14 kt de nord-ouest avec des rafales jusqu'à 24 kt
Visibilité 10 km ou plus
Nuages fragmentés à une hauteur de 3500 ft
Evoluant progressivement
du 22 à 18 UTC au 22 à 20 UTC
Vent 7 kt de nord-ouest

TAF: EHGR 220807Z 2209/2221 31014G24KT 9999 BKN035 BECMG 2218/2220 32007KT

Observations et prévisions météorologiques de plus de 4000 aéroports (messages METAR et TAF).

Les stations disponibles sont représentées par des disques jaunes et rouges sur la carte.

Passer la souris dessus pour voir le nom de la station.

Cliquer dessus pour voir les observations et prévisions météorologiques.

Pour changer de carte: cliquez sur les boutons verts avec une croix noire pour zoomer, sur le bouton vert avec un tiret pour effectuer un zoom arrière, ou sur les flèches vertes pour les cartes adjacentes.


METAR-TAF: